sensor_id;sensor_type;location;lat;lon;timestamp;temperature;humidity
75164;HTU21D;63746;45.402;37.922;2024-02-21T00:01:07;3.05;72.42
75164;HTU21D;63746;45.402;37.922;2024-02-21T00:03:33;3.05;72.49
75164;HTU21D;63746;45.402;37.922;2024-02-21T00:05:59;3.11;72.61
75164;HTU21D;63746;45.402;37.922;2024-02-21T00:08:25;3.12;72.52
75164;HTU21D;63746;45.402;37.922;2024-02-21T00:10:51;3.12;72.47
75164;HTU21D;63746;45.402;37.922;2024-02-21T00:13:17;3.13;72.54
75164;HTU21D;63746;45.402;37.922;2024-02-21T00:15:43;3.13;72.51
75164;HTU21D;63746;45.402;37.922;2024-02-21T00:18:09;3.14;72.54
75164;HTU21D;63746;45.402;37.922;2024-02-21T00:20:36;3.17;72.58
75164;HTU21D;63746;45.402;37.922;2024-02-21T00:23:02;3.20;72.61
75164;HTU21D;63746;45.402;37.922;2024-02-21T00:25:29;3.23;72.55
75164;HTU21D;63746;45.402;37.922;2024-02-21T00:27:55;3.24;72.53
75164;HTU21D;63746;45.402;37.922;2024-02-21T00:30:21;3.27;72.60
75164;HTU21D;63746;45.402;37.922;2024-02-21T00:32:47;3.28;72.50
75164;HTU21D;63746;45.402;37.922;2024-02-21T00:35:14;3.29;72.42
75164;HTU21D;63746;45.402;37.922;2024-02-21T00:37:40;3.30;72.38
75164;HTU21D;63746;45.402;37.922;2024-02-21T00:40:06;3.29;72.29
75164;HTU21D;63746;45.402;37.922;2024-02-21T00:42:32;3.27;72.19
75164;HTU21D;63746;45.402;37.922;2024-02-21T00:44:58;3.26;72.28
75164;HTU21D;63746;45.402;37.922;2024-02-21T00:47:24;3.26;72.25
75164;HTU21D;63746;45.402;37.922;2024-02-21T00:49:50;3.25;72.18
75164;HTU21D;63746;45.402;37.922;2024-02-21T00:52:16;3.24;72.16
75164;HTU21D;63746;45.402;37.922;2024-02-21T00:54:42;3.23;72.16
75164;HTU21D;63746;45.402;37.922;2024-02-21T00:57:08;3.23;72.20
75164;HTU21D;63746;45.402;37.922;2024-02-21T00:59:34;3.20;72.26
75164;HTU21D;63746;45.402;37.922;2024-02-21T01:02:00;3.21;72.27
75164;HTU21D;63746;45.402;37.922;2024-02-21T01:04:26;3.23;72.32
75164;HTU21D;63746;45.402;37.922;2024-02-21T01:06:52;3.21;72.32
75164;HTU21D;63746;45.402;37.922;2024-02-21T01:09:18;3.18;72.28
75164;HTU21D;63746;45.402;37.922;2024-02-21T01:11:44;3.20;72.33
75164;HTU21D;63746;45.402;37.922;2024-02-21T01:14:10;3.23;72.39
75164;HTU21D;63746;45.402;37.922;2024-02-21T01:16:36;3.21;72.30
75164;HTU21D;63746;45.402;37.922;2024-02-21T01:19:02;3.18;72.20
75164;HTU21D;63746;45.402;37.922;2024-02-21T01:21:28;3.15;72.13
75164;HTU21D;63746;45.402;37.922;2024-02-21T01:23:54;3.13;72.12
75164;HTU21D;63746;45.402;37.922;2024-02-21T01:26:20;3.09;72.11
75164;HTU21D;63746;45.402;37.922;2024-02-21T01:28:46;3.06;72.16
75164;HTU21D;63746;45.402;37.922;2024-02-21T01:31:12;3.05;72.28
75164;HTU21D;63746;45.402;37.922;2024-02-21T01:33:38;3.05;72.30
75164;HTU21D;63746;45.402;37.922;2024-02-21T01:36:05;3.04;72.26
75164;HTU21D;63746;45.402;37.922;2024-02-21T01:38:33;3.04;72.33
75164;HTU21D;63746;45.402;37.922;2024-02-21T01:40:59;3.01;72.32
75164;HTU21D;63746;45.402;37.922;2024-02-21T01:43:25;2.98;72.20
75164;HTU21D;63746;45.402;37.922;2024-02-21T01:45:57;2.95;72.21
75164;HTU21D;63746;45.402;37.922;2024-02-21T01:48:24;2.93;72.28
75164;HTU21D;63746;45.402;37.922;2024-02-21T01:50:51;2.93;72.38
75164;HTU21D;63746;45.402;37.922;2024-02-21T01:53:32;2.94;72.51
75164;HTU21D;63746;45.402;37.922;2024-02-21T01:56:01;2.95;72.64
75164;HTU21D;63746;45.402;37.922;2024-02-21T01:58:28;2.96;72.55
75164;HTU21D;63746;45.402;37.922;2024-02-21T02:00:56;2.96;72.64
75164;HTU21D;63746;45.402;37.922;2024-02-21T02:03:23;2.96;72.49
75164;HTU21D;63746;45.402;37.922;2024-02-21T02:05:51;2.94;72.45
75164;HTU21D;63746;45.402;37.922;2024-02-21T02:08:19;2.93;72.46
75164;HTU21D;63746;45.402;37.922;2024-02-21T02:10:45;2.94;72.48
75164;HTU21D;63746;45.402;37.922;2024-02-21T02:13:12;2.91;72.48
75164;HTU21D;63746;45.402;37.922;2024-02-21T02:15:42;2.91;72.52
75164;HTU21D;63746;45.402;37.922;2024-02-21T02:18:09;2.93;72.61
75164;HTU21D;63746;45.402;37.922;2024-02-21T02:20:37;2.96;72.67
75164;HTU21D;63746;45.402;37.922;2024-02-21T02:23:27;2.97;72.64
75164;HTU21D;63746;45.402;37.922;2024-02-21T02:25:53;2.97;72.63
75164;HTU21D;63746;45.402;37.922;2024-02-21T02:28:20;2.96;72.58
75164;HTU21D;63746;45.402;37.922;2024-02-21T02:30:47;2.91;72.49
75164;HTU21D;63746;45.402;37.922;2024-02-21T02:33:13;2.93;72.58
75164;HTU21D;63746;45.402;37.922;2024-02-21T02:35:39;2.94;72.61
75164;HTU21D;63746;45.402;37.922;2024-02-21T02:38:05;2.94;72.55
75164;HTU21D;63746;45.402;37.922;2024-02-21T02:40:33;2.91;72.52
75164;HTU21D;63746;45.402;37.922;2024-02-21T02:42:59;2.90;72.62
75164;HTU21D;63746;45.402;37.922;2024-02-21T02:45:25;2.90;72.61
75164;HTU21D;63746;45.402;37.922;2024-02-21T02:47:56;2.89;72.54
75164;HTU21D;63746;45.402;37.922;2024-02-21T02:50:23;2.86;72.38
75164;HTU21D;63746;45.402;37.922;2024-02-21T02:52:49;2.83;72.47
75164;HTU21D;63746;45.402;37.922;2024-02-21T02:55:16;2.83;72.56
75164;HTU21D;63746;45.402;37.922;2024-02-21T02:57:42;2.84;72.58
75164;HTU21D;63746;45.402;37.922;2024-02-21T03:00:10;2.83;72.55
75164;HTU21D;63746;45.402;37.922;2024-02-21T03:02:38;2.82;72.54
75164;HTU21D;63746;45.402;37.922;2024-02-21T03:05:15;2.83;72.58
75164;HTU21D;63746;45.402;37.922;2024-02-21T03:07:41;2.83;72.59
75164;HTU21D;63746;45.402;37.922;2024-02-21T03:10:08;2.83;72.58
75164;HTU21D;63746;45.402;37.922;2024-02-21T03:12:34;2.84;72.64
75164;HTU21D;63746;45.402;37.922;2024-02-21T03:15:00;2.85;72.67
75164;HTU21D;63746;45.402;37.922;2024-02-21T03:17:26;2.88;72.76
75164;HTU21D;63746;45.402;37.922;2024-02-21T03:19:53;2.90;72.69
75164;HTU21D;63746;45.402;37.922;2024-02-21T03:22:21;2.89;72.58
75164;HTU21D;63746;45.402;37.922;2024-02-21T03:24:48;2.90;72.54
75164;HTU21D;63746;45.402;37.922;2024-02-21T03:27:14;2.87;72.52
75164;HTU21D;63746;45.402;37.922;2024-02-21T03:29:40;2.87;72.48
75164;HTU21D;63746;45.402;37.922;2024-02-21T03:32:06;2.85;72.41
75164;HTU21D;63746;45.402;37.922;2024-02-21T03:34:32;2.83;72.33
75164;HTU21D;63746;45.402;37.922;2024-02-21T03:36:58;2.79;72.24
75164;HTU21D;63746;45.402;37.922;2024-02-21T03:39:24;2.74;72.25
75164;HTU21D;63746;45.402;37.922;2024-02-21T03:41:50;2.71;72.30
75164;HTU21D;63746;45.402;37.922;2024-02-21T03:44:17;2.72;72.32
75164;HTU21D;63746;45.402;37.922;2024-02-21T03:46:43;2.67;72.30
75164;HTU21D;63746;45.402;37.922;2024-02-21T03:49:09;2.65;72.25
75164;HTU21D;63746;45.402;37.922;2024-02-21T03:51:35;2.64;72.37
75164;HTU21D;63746;45.402;37.922;2024-02-21T03:54:01;2.66;72.48
75164;HTU21D;63746;45.402;37.922;2024-02-21T03:56:27;2.67;72.54
75164;HTU21D;63746;45.402;37.922;2024-02-21T03:58:53;2.70;72.67
75164;HTU21D;63746;45.402;37.922;2024-02-21T04:01:19;2.74;72.84
75164;HTU21D;63746;45.402;37.922;2024-02-21T04:03:45;2.80;72.95
75164;HTU21D;63746;45.402;37.922;2024-02-21T04:06:11;2.82;72.88
75164;HTU21D;63746;45.402;37.922;2024-02-21T04:08:38;2.84;72.72
75164;HTU21D;63746;45.402;37.922;2024-02-21T04:11:04;2.82;72.48
75164;HTU21D;63746;45.402;37.922;2024-02-21T04:13:30;2.79;72.27
75164;HTU21D;63746;45.402;37.922;2024-02-21T04:15:56;2.73;72.21
75164;HTU21D;63746;45.402;37.922;2024-02-21T04:18:22;2.69;72.14
75164;HTU21D;63746;45.402;37.922;2024-02-21T04:20:50;2.64;72.13
75164;HTU21D;63746;45.402;37.922;2024-02-21T04:23:16;2.59;72.17
75164;HTU21D;63746;45.402;37.922;2024-02-21T04:25:42;2.55;72.03
75164;HTU21D;63746;45.402;37.922;2024-02-21T04:28:08;2.49;72.01
75164;HTU21D;63746;45.402;37.922;2024-02-21T04:30:34;2.44;71.98
75164;HTU21D;63746;45.402;37.922;2024-02-21T04:32:59;2.41;72.10
75164;HTU21D;63746;45.402;37.922;2024-02-21T04:35:26;2.37;72.20
75164;HTU21D;63746;45.402;37.922;2024-02-21T04:37:52;2.34;72.16
75164;HTU21D;63746;45.402;37.922;2024-02-21T04:40:18;2.29;72.19
75164;HTU21D;63746;45.402;37.922;2024-02-21T04:42:44;2.28;72.38
75164;HTU21D;63746;45.402;37.922;2024-02-21T04:45:10;2.30;72.58
75164;HTU21D;63746;45.402;37.922;2024-02-21T04:47:36;2.35;72.82
75164;HTU21D;63746;45.402;37.922;2024-02-21T04:50:02;2.39;72.85
75164;HTU21D;63746;45.402;37.922;2024-02-21T04:52:29;2.39;72.72
75164;HTU21D;63746;45.402;37.922;2024-02-21T04:54:55;2.39;72.70
75164;HTU21D;63746;45.402;37.922;2024-02-21T04:57:21;2.42;72.84
75164;HTU21D;63746;45.402;37.922;2024-02-21T04:59:47;2.44;72.89
75164;HTU21D;63746;45.402;37.922;2024-02-21T05:02:14;2.47;72.92
75164;HTU21D;63746;45.402;37.922;2024-02-21T05:04:40;2.50;72.77
75164;HTU21D;63746;45.402;37.922;2024-02-21T05:07:07;2.49;72.67
75164;HTU21D;63746;45.402;37.922;2024-02-21T05:09:33;2.47;72.63
75164;HTU21D;63746;45.402;37.922;2024-02-21T05:11:59;2.47;72.74
75164;HTU21D;63746;45.402;37.922;2024-02-21T05:14:26;2.51;72.77
75164;HTU21D;63746;45.402;37.922;2024-02-21T05:16:55;2.51;72.69
75164;HTU21D;63746;45.402;37.922;2024-02-21T05:19:21;2.52;72.70
75164;HTU21D;63746;45.402;37.922;2024-02-21T05:21:47;2.51;72.65
75164;HTU21D;63746;45.402;37.922;2024-02-21T05:24:13;2.51;72.61
75164;HTU21D;63746;45.402;37.922;2024-02-21T05:26:39;2.52;72.62
75164;HTU21D;63746;45.402;37.922;2024-02-21T05:29:05;2.52;72.73
75164;HTU21D;63746;45.402;37.922;2024-02-21T05:34:18;2.55;72.83
75164;HTU21D;63746;45.402;37.922;2024-02-21T05:36:44;2.57;72.87
75164;HTU21D;63746;45.402;37.922;2024-02-21T05:39:10;2.59;72.87
75164;HTU21D;63746;45.402;37.922;2024-02-21T05:41:36;2.62;72.96
75164;HTU21D;63746;45.402;37.922;2024-02-21T05:44:02;2.61;72.72
75164;HTU21D;63746;45.402;37.922;2024-02-21T05:46:28;2.58;72.64
75164;HTU21D;63746;45.402;37.922;2024-02-21T05:48:54;2.57;72.58
75164;HTU21D;63746;45.402;37.922;2024-02-21T05:51:20;2.58;72.64
75164;HTU21D;63746;45.402;37.922;2024-02-21T05:53:46;2.57;72.73
75164;HTU21D;63746;45.402;37.922;2024-02-21T05:56:13;2.59;72.83
75164;HTU21D;63746;45.402;37.922;2024-02-21T05:58:40;2.64;72.91
75164;HTU21D;63746;45.402;37.922;2024-02-21T06:01:07;2.64;72.85
75164;HTU21D;63746;45.402;37.922;2024-02-21T06:03:33;2.65;72.87
75164;HTU21D;63746;45.402;37.922;2024-02-21T06:06:00;2.66;72.84
75164;HTU21D;63746;45.402;37.922;2024-02-21T06:08:26;2.66;72.82
75164;HTU21D;63746;45.402;37.922;2024-02-21T06:10:52;2.67;72.80
75164;HTU21D;63746;45.402;37.922;2024-02-21T06:13:26;2.67;72.80
75164;HTU21D;63746;45.402;37.922;2024-02-21T06:15:53;2.69;72.86
75164;HTU21D;63746;45.402;37.922;2024-02-21T06:18:19;2.73;72.90
75164;HTU21D;63746;45.402;37.922;2024-02-21T06:20:46;2.73;72.79
75164;HTU21D;63746;45.402;37.922;2024-02-21T06:23:14;2.73;72.77
75164;HTU21D;63746;45.402;37.922;2024-02-21T06:25:41;2.74;72.83
75164;HTU21D;63746;45.402;37.922;2024-02-21T06:28:07;2.76;72.88
75164;HTU21D;63746;45.402;37.922;2024-02-21T06:30:33;2.78;72.87
75164;HTU21D;63746;45.402;37.922;2024-02-21T06:32:59;2.79;72.87
75164;HTU21D;63746;45.402;37.922;2024-02-21T06:35:26;2.80;72.74
75164;HTU21D;63746;45.402;37.922;2024-02-21T06:37:52;2.81;72.77
75164;HTU21D;63746;45.402;37.922;2024-02-21T06:40:22;2.84;72.95
75164;HTU21D;63746;45.402;37.922;2024-02-21T06:42:48;2.95;73.35
75164;HTU21D;63746;45.402;37.922;2024-02-21T06:45:15;3.10;73.72
75164;HTU21D;63746;45.402;37.922;2024-02-21T06:47:41;3.26;73.85
75164;HTU21D;63746;45.402;37.922;2024-02-21T06:50:07;3.41;73.99
75164;HTU21D;63746;45.402;37.922;2024-02-21T06:52:34;3.58;74.00
75164;HTU21D;63746;45.402;37.922;2024-02-21T06:55:00;3.70;73.89
75164;HTU21D;63746;45.402;37.922;2024-02-21T06:57:27;3.83;73.86
75164;HTU21D;63746;45.402;37.922;2024-02-21T06:59:53;3.94;73.68
75164;HTU21D;63746;45.402;37.922;2024-02-21T07:02:19;4.03;73.54
75164;HTU21D;63746;45.402;37.922;2024-02-21T07:04:45;4.13;73.41
75164;HTU21D;63746;45.402;37.922;2024-02-21T07:07:11;4.18;73.35
75164;HTU21D;63746;45.402;37.922;2024-02-21T07:09:38;4.27;73.33
75164;HTU21D;63746;45.402;37.922;2024-02-21T07:12:05;4.30;73.07
75164;HTU21D;63746;45.402;37.922;2024-02-21T07:14:35;4.31;72.90
75164;HTU21D;63746;45.402;37.922;2024-02-21T07:17:02;4.31;72.63
75164;HTU21D;63746;45.402;37.922;2024-02-21T07:19:28;4.33;72.69
75164;HTU21D;63746;45.402;37.922;2024-02-21T07:21:54;4.39;72.91
75164;HTU21D;63746;45.402;37.922;2024-02-21T07:24:20;4.50;73.14
75164;HTU21D;63746;45.402;37.922;2024-02-21T07:26:45;4.58;73.15
75164;HTU21D;63746;45.402;37.922;2024-02-21T07:29:11;4.65;73.09
75164;HTU21D;63746;45.402;37.922;2024-02-21T07:31:42;4.71;73.00
75164;HTU21D;63746;45.402;37.922;2024-02-21T07:34:08;4.71;72.58
75164;HTU21D;63746;45.402;37.922;2024-02-21T07:50:24;5.67;71.11
75164;HTU21D;63746;45.402;37.922;2024-02-21T07:52:50;5.62;71.10
75164;HTU21D;63746;45.402;37.922;2024-02-21T07:55:16;5.56;71.38
75164;HTU21D;63746;45.402;37.922;2024-02-21T07:57:42;5.50;71.50
75164;HTU21D;63746;45.402;37.922;2024-02-21T08:00:08;5.39;71.55
75164;HTU21D;63746;45.402;37.922;2024-02-21T08:02:40;5.28;71.58
75164;HTU21D;63746;45.402;37.922;2024-02-21T08:05:08;5.20;71.73
75164;HTU21D;63746;45.402;37.922;2024-02-21T08:07:34;5.11;71.80
75164;HTU21D;63746;45.402;37.922;2024-02-21T08:10:00;5.04;71.87
75164;HTU21D;63746;45.402;37.922;2024-02-21T08:12:26;5.02;72.11
75164;HTU21D;63746;45.402;37.922;2024-02-21T08:14:52;5.02;72.34
75164;HTU21D;63746;45.402;37.922;2024-02-21T08:17:18;5.06;72.60
75164;HTU21D;63746;45.402;37.922;2024-02-21T08:19:44;5.11;72.80
75164;HTU21D;63746;45.402;37.922;2024-02-21T08:22:10;5.12;72.57
75164;HTU21D;63746;45.402;37.922;2024-02-21T08:24:36;5.08;72.33
75164;HTU21D;63746;45.402;37.922;2024-02-21T08:27:02;5.05;72.39
75164;HTU21D;63746;45.402;37.922;2024-02-21T08:29:29;5.07;72.54
75164;HTU21D;63746;45.402;37.922;2024-02-21T08:31:55;5.09;72.54
75164;HTU21D;63746;45.402;37.922;2024-02-21T08:34:21;5.09;72.46
75164;HTU21D;63746;45.402;37.922;2024-02-21T08:36:47;5.11;72.48
75164;HTU21D;63746;45.402;37.922;2024-02-21T08:39:13;5.11;72.48
75164;HTU21D;63746;45.402;37.922;2024-02-21T08:41:42;5.15;72.53
75164;HTU21D;63746;45.402;37.922;2024-02-21T08:44:08;5.16;72.36
75164;HTU21D;63746;45.402;37.922;2024-02-21T08:46:34;5.16;72.36
75164;HTU21D;63746;45.402;37.922;2024-02-21T08:49:00;5.18;72.50
75164;HTU21D;63746;45.402;37.922;2024-02-21T08:51:27;5.21;72.52
75164;HTU21D;63746;45.402;37.922;2024-02-21T08:53:53;5.23;72.41
75164;HTU21D;63746;45.402;37.922;2024-02-21T08:56:19;5.23;72.28
75164;HTU21D;63746;45.402;37.922;2024-02-21T08:58:45;5.25;72.44
75164;HTU21D;63746;45.402;37.922;2024-02-21T09:01:12;5.26;72.45
75164;HTU21D;63746;45.402;37.922;2024-02-21T09:03:39;5.28;72.42
75164;HTU21D;63746;45.402;37.922;2024-02-21T09:06:06;5.32;72.50
75164;HTU21D;63746;45.402;37.922;2024-02-21T09:08:32;5.36;72.49
75164;HTU21D;63746;45.402;37.922;2024-02-21T09:11:00;5.39;72.64
75164;HTU21D;63746;45.402;37.922;2024-02-21T09:13:27;5.47;72.72
75164;HTU21D;63746;45.402;37.922;2024-02-21T09:15:53;5.54;72.72
75164;HTU21D;63746;45.402;37.922;2024-02-21T09:18:19;5.61;72.69
75164;HTU21D;63746;45.402;37.922;2024-02-21T09:20:45;5.62;72.41
75164;HTU21D;63746;45.402;37.922;2024-02-21T09:23:12;5.59;72.24
75164;HTU21D;63746;45.402;37.922;2024-02-21T09:25:38;5.54;72.04
75164;HTU21D;63746;45.402;37.922;2024-02-21T09:28:04;5.53;72.11
75164;HTU21D;63746;45.402;37.922;2024-02-21T09:30:32;5.56;72.26
75164;HTU21D;63746;45.402;37.922;2024-02-21T09:32:58;5.60;72.32
75164;HTU21D;63746;45.402;37.922;2024-02-21T09:35:28;5.61;72.29
75164;HTU21D;63746;45.402;37.922;2024-02-21T09:37:54;5.57;71.96
75164;HTU21D;63746;45.402;37.922;2024-02-21T09:40:21;5.57;72.14
75164;HTU21D;63746;45.402;37.922;2024-02-21T09:42:47;5.61;72.32
75164;HTU21D;63746;45.402;37.922;2024-02-21T09:45:20;5.64;72.29
75164;HTU21D;63746;45.402;37.922;2024-02-21T09:50:43;5.79;72.58
75164;HTU21D;63746;45.402;37.922;2024-02-21T09:53:12;5.84;72.51
75164;HTU21D;63746;45.402;37.922;2024-02-21T09:55:39;5.91;72.40
75164;HTU21D;63746;45.402;37.922;2024-02-21T09:58:07;5.93;72.35
75164;HTU21D;63746;45.402;37.922;2024-02-21T10:00:35;5.94;72.22
75164;HTU21D;63746;45.402;37.922;2024-02-21T10:03:02;5.97;72.09
75164;HTU21D;63746;45.402;37.922;2024-02-21T10:05:36;5.98;72.23
75164;HTU21D;63746;45.402;37.922;2024-02-21T10:08:06;6.02;72.38
75164;HTU21D;63746;45.402;37.922;2024-02-21T10:10:45;6.09;72.41
75164;HTU21D;63746;45.402;37.922;2024-02-21T10:13:24;6.17;72.35
75164;HTU21D;63746;45.402;37.922;2024-02-21T10:16:11;6.20;72.13
75164;HTU21D;63746;45.402;37.922;2024-02-21T10:18:37;6.22;72.19
75164;HTU21D;63746;45.402;37.922;2024-02-21T10:21:04;6.26;72.28
75164;HTU21D;63746;45.402;37.922;2024-02-21T10:23:50;6.35;72.44
75164;HTU21D;63746;45.402;37.922;2024-02-21T10:26:19;6.41;72.44
75164;HTU21D;63746;45.402;37.922;2024-02-21T10:28:47;6.44;72.13
75164;HTU21D;63746;45.402;37.922;2024-02-21T10:31:28;6.41;71.86
75164;HTU21D;63746;45.402;37.922;2024-02-21T10:33:56;6.38;71.64
75164;HTU21D;63746;45.402;37.922;2024-02-21T10:36:23;6.36;71.54
75164;HTU21D;63746;45.402;37.922;2024-02-21T10:38:50;6.40;72.15
75164;HTU21D;63746;45.402;37.922;2024-02-21T10:41:19;6.58;73.04
75164;HTU21D;63746;45.402;37.922;2024-02-21T10:43:50;6.84;73.51
75164;HTU21D;63746;45.402;37.922;2024-02-21T10:46:19;6.98;72.94
75164;HTU21D;63746;45.402;37.922;2024-02-21T10:48:46;7.02;72.22
75164;HTU21D;63746;45.402;37.922;2024-02-21T10:51:20;6.97;71.71
75164;HTU21D;63746;45.402;37.922;2024-02-21T10:54:07;6.88;71.37
75164;HTU21D;63746;45.402;37.922;2024-02-21T10:56:38;6.83;71.38
75164;HTU21D;63746;45.402;37.922;2024-02-21T10:59:07;6.80;71.45
75164;HTU21D;63746;45.402;37.922;2024-02-21T11:01:33;6.78;71.51
75164;HTU21D;63746;45.402;37.922;2024-02-21T11:04:05;6.76;71.54
75164;HTU21D;63746;45.402;37.922;2024-02-21T11:06:33;6.76;71.40
75164;HTU21D;63746;45.402;37.922;2024-02-21T11:09:04;6.72;71.29
75164;HTU21D;63746;45.402;37.922;2024-02-21T11:11:41;6.70;71.52
75164;HTU21D;63746;45.402;37.922;2024-02-21T11:16:40;6.69;71.51
75164;HTU21D;63746;45.402;37.922;2024-02-21T11:19:18;6.71;71.48
75164;HTU21D;63746;45.402;37.922;2024-02-21T11:21:45;6.68;71.26
75164;HTU21D;63746;45.402;37.922;2024-02-21T11:24:10;6.70;71.51
75164;HTU21D;63746;45.402;37.922;2024-02-21T11:26:37;6.72;71.55
75164;HTU21D;63746;45.402;37.922;2024-02-21T11:29:04;6.73;71.41
75164;HTU21D;63746;45.402;37.922;2024-02-21T11:31:43;6.72;71.57
75164;HTU21D;63746;45.402;37.922;2024-02-21T11:34:10;6.74;71.58
75164;HTU21D;63746;45.402;37.922;2024-02-21T11:36:52;6.76;71.55
75164;HTU21D;63746;45.402;37.922;2024-02-21T11:39:25;6.75;71.45
75164;HTU21D;63746;45.402;37.922;2024-02-21T11:42:05;6.73;71.28
75164;HTU21D;63746;45.402;37.922;2024-02-21T11:44:32;6.70;71.16
75164;HTU21D;63746;45.402;37.922;2024-02-21T11:46:58;6.69;71.33
75164;HTU21D;63746;45.402;37.922;2024-02-21T11:49:31;6.71;71.61
75164;HTU21D;63746;45.402;37.922;2024-02-21T11:52:01;6.74;71.61
75164;HTU21D;63746;45.402;37.922;2024-02-21T11:54:30;6.80;71.56
75164;HTU21D;63746;45.402;37.922;2024-02-21T11:56:56;6.81;71.49
75164;HTU21D;63746;45.402;37.922;2024-02-21T11:59:22;6.82;71.53
75164;HTU21D;63746;45.402;37.922;2024-02-21T12:01:49;6.83;71.50
75164;HTU21D;63746;45.402;37.922;2024-02-21T12:04:18;6.83;71.35
75164;HTU21D;63746;45.402;37.922;2024-02-21T12:06:45;6.80;71.24
75164;HTU21D;63746;45.402;37.922;2024-02-21T12:09:17;6.79;71.23
75164;HTU21D;63746;45.402;37.922;2024-02-21T12:11:45;6.75;71.00
75164;HTU21D;63746;45.402;37.922;2024-02-21T12:14:16;6.71;71.13
75164;HTU21D;63746;45.402;37.922;2024-02-21T12:16:43;6.75;71.45
75164;HTU21D;63746;45.402;37.922;2024-02-21T12:19:13;6.81;71.57
75164;HTU21D;63746;45.402;37.922;2024-02-21T12:21:39;6.84;71.56
75164;HTU21D;63746;45.402;37.922;2024-02-21T12:24:20;6.87;71.64
75164;HTU21D;63746;45.402;37.922;2024-02-21T12:26:46;6.94;71.61
75164;HTU21D;63746;45.402;37.922;2024-02-21T12:29:12;6.95;71.55
75164;HTU21D;63746;45.402;37.922;2024-02-21T12:31:39;6.97;71.42
75164;HTU21D;63746;45.402;37.922;2024-02-21T12:34:05;6.96;71.26
75164;HTU21D;63746;45.402;37.922;2024-02-21T12:36:32;6.95;71.15
75164;HTU21D;63746;45.402;37.922;2024-02-21T12:38:58;6.90;71.00
75164;HTU21D;63746;45.402;37.922;2024-02-21T12:41:24;6.89;71.13
75164;HTU21D;63746;45.402;37.922;2024-02-21T12:43:53;6.89;71.16
75164;HTU21D;63746;45.402;37.922;2024-02-21T12:46:19;6.87;71.09
75164;HTU21D;63746;45.402;37.922;2024-02-21T12:48:45;6.85;70.96
75164;HTU21D;63746;45.402;37.922;2024-02-21T12:51:11;6.81;70.97
75164;HTU21D;63746;45.402;37.922;2024-02-21T12:53:38;6.80;71.14
75164;HTU21D;63746;45.402;37.922;2024-02-21T12:56:05;6.82;71.23
75164;HTU21D;63746;45.402;37.922;2024-02-21T12:58:33;6.80;71.13
75164;HTU21D;63746;45.402;37.922;2024-02-21T13:00:59;6.75;70.90
75164;HTU21D;63746;45.402;37.922;2024-02-21T13:03:25;6.72;71.01
75164;HTU21D;63746;45.402;37.922;2024-02-21T13:05:51;6.71;71.15
75164;HTU21D;63746;45.402;37.922;2024-02-21T13:08:17;6.72;71.22
75164;HTU21D;63746;45.402;37.922;2024-02-21T13:10:48;6.86;72.06
75164;HTU21D;63746;45.402;37.922;2024-02-21T13:13:14;6.96;71.98
75164;HTU21D;63746;45.402;37.922;2024-02-21T13:15:40;7.00;71.73
75164;HTU21D;63746;45.402;37.922;2024-02-21T13:18:09;7.02;71.45
75164;HTU21D;63746;45.402;37.922;2024-02-21T13:20:36;6.99;71.16
75164;HTU21D;63746;45.402;37.922;2024-02-21T13:23:03;6.94;71.07
75164;HTU21D;63746;45.402;37.922;2024-02-21T13:25:29;6.93;71.15
75164;HTU21D;63746;45.402;37.922;2024-02-21T13:27:55;6.91;71.10
75164;HTU21D;63746;45.402;37.922;2024-02-21T13:30:22;6.90;71.12
75164;HTU21D;63746;45.402;37.922;2024-02-21T13:32:48;6.85;70.94
75164;HTU21D;63746;45.402;37.922;2024-02-21T13:35:14;6.83;71.06
75164;HTU21D;63746;45.402;37.922;2024-02-21T13:37:41;6.82;71.08
75164;HTU21D;63746;45.402;37.922;2024-02-21T13:40:08;6.79;71.13
75164;HTU21D;63746;45.402;37.922;2024-02-21T13:42:37;6.80;71.02
75164;HTU21D;63746;45.402;37.922;2024-02-21T13:45:04;6.74;70.87
75164;HTU21D;63746;45.402;37.922;2024-02-21T13:47:31;6.71;70.81
75164;HTU21D;63746;45.402;37.922;2024-02-21T13:49:58;6.66;70.78
75164;HTU21D;63746;45.402;37.922;2024-02-21T13:52:24;6.63;70.81
75164;HTU21D;63746;45.402;37.922;2024-02-21T13:54:52;6.58;70.91
75164;HTU21D;63746;45.402;37.922;2024-02-21T13:57:18;6.55;70.93
75164;HTU21D;63746;45.402;37.922;2024-02-21T13:59:44;6.52;70.87
75164;HTU21D;63746;45.402;37.922;2024-02-21T14:02:10;6.46;70.85
75164;HTU21D;63746;45.402;37.922;2024-02-21T14:04:38;6.44;70.98
75164;HTU21D;63746;45.402;37.922;2024-02-21T14:07:04;6.42;70.92
75164;HTU21D;63746;45.402;37.922;2024-02-21T14:09:30;6.39;70.97
75164;HTU21D;63746;45.402;37.922;2024-02-21T14:11:56;6.37;71.22
75164;HTU21D;63746;45.402;37.922;2024-02-21T14:14:22;6.44;71.59
75164;HTU21D;63746;45.402;37.922;2024-02-21T14:16:48;6.44;71.28
75164;HTU21D;63746;45.402;37.922;2024-02-21T14:19:14;6.40;71.14
75164;HTU21D;63746;45.402;37.922;2024-02-21T14:21:41;6.38;71.08
75164;HTU21D;63746;45.402;37.922;2024-02-21T14:24:07;6.36;71.09
75164;HTU21D;63746;45.402;37.922;2024-02-21T14:26:33;6.35;71.18
75164;HTU21D;63746;45.402;37.922;2024-02-21T14:29:01;6.33;71.19
75164;HTU21D;63746;45.402;37.922;2024-02-21T14:31:31;6.30;71.19
75164;HTU21D;63746;45.402;37.922;2024-02-21T14:33:57;6.29;71.06
75164;HTU21D;63746;45.402;37.922;2024-02-21T14:36:23;6.23;70.93
75164;HTU21D;63746;45.402;37.922;2024-02-21T14:38:49;6.20;71.03
75164;HTU21D;63746;45.402;37.922;2024-02-21T14:41:17;6.19;71.15
75164;HTU21D;63746;45.402;37.922;2024-02-21T14:43:44;6.17;71.16
75164;HTU21D;63746;45.402;37.922;2024-02-21T14:46:12;6.15;71.15
75164;HTU21D;63746;45.402;37.922;2024-02-21T14:48:38;6.14;71.13
75164;HTU21D;63746;45.402;37.922;2024-02-21T14:51:04;6.11;71.15
75164;HTU21D;63746;45.402;37.922;2024-02-21T14:53:31;6.10;71.10
75164;HTU21D;63746;45.402;37.922;2024-02-21T14:55:57;6.06;71.13
75164;HTU21D;63746;45.402;37.922;2024-02-21T14:58:25;6.02;71.13
75164;HTU21D;63746;45.402;37.922;2024-02-21T15:00:52;6.01;71.17
75164;HTU21D;63746;45.402;37.922;2024-02-21T15:03:19;6.00;71.23
75164;HTU21D;63746;45.402;37.922;2024-02-21T15:05:46;6.00;71.29
75164;HTU21D;63746;45.402;37.922;2024-02-21T15:08:13;5.98;71.26
75164;HTU21D;63746;45.402;37.922;2024-02-21T15:10:42;5.97;71.20
75164;HTU21D;63746;45.402;37.922;2024-02-21T15:13:08;5.95;71.20
75164;HTU21D;63746;45.402;37.922;2024-02-21T15:15:35;5.92;71.14
75164;HTU21D;63746;45.402;37.922;2024-02-21T15:18:01;5.87;71.03
75164;HTU21D;63746;45.402;37.922;2024-02-21T15:20:28;5.84;71.06
75164;HTU21D;63746;45.402;37.922;2024-02-21T15:22:55;5.81;71.16
75164;HTU21D;63746;45.402;37.922;2024-02-21T15:25:21;5.80;71.26
75164;HTU21D;63746;45.402;37.922;2024-02-21T15:27:47;5.80;71.26
75164;HTU21D;63746;45.402;37.922;2024-02-21T15:30:15;5.78;71.27
75164;HTU21D;63746;45.402;37.922;2024-02-21T15:32:41;5.77;71.25
75164;HTU21D;63746;45.402;37.922;2024-02-21T15:35:10;5.74;71.23
75164;HTU21D;63746;45.402;37.922;2024-02-21T15:37:36;5.71;71.26